sensor_id;sensor_type;location;lat;lon;timestamp;temperature;humidity
210;DHT22;90;48.810;9.120;2023-03-29T00:00:18;7.80;79.00
210;DHT22;90;48.810;9.120;2023-03-29T00:02:47;7.80;79.50
210;DHT22;90;48.810;9.120;2023-03-29T00:05:16;7.80;80.10
210;DHT22;90;48.810;9.120;2023-03-29T00:07:44;7.80;80.00
210;DHT22;90;48.810;9.120;2023-03-29T00:10:12;7.70;81.10
210;DHT22;90;48.810;9.120;2023-03-29T00:12:39;7.70;81.40
210;DHT22;90;48.810;9.120;2023-03-29T00:15:07;7.70;81.30
210;DHT22;90;48.810;9.120;2023-03-29T00:17:34;7.60;81.50
210;DHT22;90;48.810;9.120;2023-03-29T00:20:03;7.70;81.10
210;DHT22;90;48.810;9.120;2023-03-29T00:22:31;7.70;81.00
210;DHT22;90;48.810;9.120;2023-03-29T00:24:58;7.70;81.30
210;DHT22;90;48.810;9.120;2023-03-29T00:27:25;7.60;81.70
210;DHT22;90;48.810;9.120;2023-03-29T00:29:52;7.60;81.40
210;DHT22;90;48.810;9.120;2023-03-29T00:32:18;7.50;81.30
210;DHT22;90;48.810;9.120;2023-03-29T00:34:45;7.50;80.80
210;DHT22;90;48.810;9.120;2023-03-29T00:37:16;7.50;80.60
210;DHT22;90;48.810;9.120;2023-03-29T00:39:44;7.60;79.90
210;DHT22;90;48.810;9.120;2023-03-29T00:42:12;7.60;79.60
210;DHT22;90;48.810;9.120;2023-03-29T00:44:57;7.60;79.30
210;DHT22;90;48.810;9.120;2023-03-29T00:47:27;7.60;79.30
210;DHT22;90;48.810;9.120;2023-03-29T00:49:56;7.70;79.80
210;DHT22;90;48.810;9.120;2023-03-29T00:52:29;7.60;79.70
210;DHT22;90;48.810;9.120;2023-03-29T00:54:59;7.50;80.00
210;DHT22;90;48.810;9.120;2023-03-29T00:57:29;7.50;80.10
210;DHT22;90;48.810;9.120;2023-03-29T00:59:59;7.60;79.90
210;DHT22;90;48.810;9.120;2023-03-29T01:02:29;7.60;80.20
210;DHT22;90;48.810;9.120;2023-03-29T01:05:01;7.50;80.20
210;DHT22;90;48.810;9.120;2023-03-29T01:07:35;7.50;80.20
210;DHT22;90;48.810;9.120;2023-03-29T01:10:05;7.60;80.10
210;DHT22;90;48.810;9.120;2023-03-29T01:12:37;7.50;80.00
210;DHT22;90;48.810;9.120;2023-03-29T01:15:08;7.60;79.80
210;DHT22;90;48.810;9.120;2023-03-29T01:17:36;7.60;79.80
210;DHT22;90;48.810;9.120;2023-03-29T01:20:08;7.60;79.40
210;DHT22;90;48.810;9.120;2023-03-29T01:22:49;7.50;79.30
210;DHT22;90;48.810;9.120;2023-03-29T01:25:25;7.40;79.20
210;DHT22;90;48.810;9.120;2023-03-29T01:27:57;7.40;79.40
210;DHT22;90;48.810;9.120;2023-03-29T01:30:30;7.40;79.40
210;DHT22;90;48.810;9.120;2023-03-29T01:33:01;7.40;79.70
210;DHT22;90;48.810;9.120;2023-03-29T01:35:35;7.40;79.60
210;DHT22;90;48.810;9.120;2023-03-29T01:38:08;7.40;79.40
210;DHT22;90;48.810;9.120;2023-03-29T01:40:35;7.40;79.20
210;DHT22;90;48.810;9.120;2023-03-29T01:43:12;7.40;79.30
210;DHT22;90;48.810;9.120;2023-03-29T01:45:44;7.50;79.20
210;DHT22;90;48.810;9.120;2023-03-29T01:48:17;7.50;79.10
210;DHT22;90;48.810;9.120;2023-03-29T01:50:47;7.50;79.20
210;DHT22;90;48.810;9.120;2023-03-29T01:53:19;7.40;79.30
210;DHT22;90;48.810;9.120;2023-03-29T01:55:51;7.50;79.40
210;DHT22;90;48.810;9.120;2023-03-29T01:58:24;7.40;79.70
210;DHT22;90;48.810;9.120;2023-03-29T02:00:53;7.40;79.80
210;DHT22;90;48.810;9.120;2023-03-29T02:03:23;7.30;80.10
210;DHT22;90;48.810;9.120;2023-03-29T02:05:52;7.10;81.20
210;DHT22;90;48.810;9.120;2023-03-29T02:08:21;7.10;81.50
210;DHT22;90;48.810;9.120;2023-03-29T02:10:48;7.10;81.60
210;DHT22;90;48.810;9.120;2023-03-29T02:13:16;7.20;81.50
210;DHT22;90;48.810;9.120;2023-03-29T02:15:45;7.10;81.40
210;DHT22;90;48.810;9.120;2023-03-29T02:18:14;7.10;81.70
210;DHT22;90;48.810;9.120;2023-03-29T02:20:44;7.10;81.70
210;DHT22;90;48.810;9.120;2023-03-29T02:23:15;7.00;82.20
210;DHT22;90;48.810;9.120;2023-03-29T02:25:46;7.00;82.40
210;DHT22;90;48.810;9.120;2023-03-29T02:28:15;7.00;82.30
210;DHT22;90;48.810;9.120;2023-03-29T02:30:49;6.90;82.50
210;DHT22;90;48.810;9.120;2023-03-29T02:33:20;7.00;82.30
210;DHT22;90;48.810;9.120;2023-03-29T02:35:52;7.10;81.90
210;DHT22;90;48.810;9.120;2023-03-29T02:38:22;7.20;81.20
210;DHT22;90;48.810;9.120;2023-03-29T02:40:52;7.20;80.70
210;DHT22;90;48.810;9.120;2023-03-29T02:43:20;7.30;80.50
210;DHT22;90;48.810;9.120;2023-03-29T02:45:50;7.30;80.10
210;DHT22;90;48.810;9.120;2023-03-29T02:48:20;7.30;79.80
210;DHT22;90;48.810;9.120;2023-03-29T02:50:50;7.30;79.30
210;DHT22;90;48.810;9.120;2023-03-29T02:53:22;7.30;79.20
210;DHT22;90;48.810;9.120;2023-03-29T02:55:50;7.10;79.40
210;DHT22;90;48.810;9.120;2023-03-29T02:58:17;7.10;79.20
210;DHT22;90;48.810;9.120;2023-03-29T03:00:47;7.00;79.10
210;DHT22;90;48.810;9.120;2023-03-29T03:03:16;7.00;78.90
210;DHT22;90;48.810;9.120;2023-03-29T03:05:42;7.00;78.60
210;DHT22;90;48.810;9.120;2023-03-29T03:08:09;7.10;78.00
210;DHT22;90;48.810;9.120;2023-03-29T03:10:37;7.10;77.70
210;DHT22;90;48.810;9.120;2023-03-29T03:13:04;7.10;77.10
210;DHT22;90;48.810;9.120;2023-03-29T03:15:33;7.10;77.20
210;DHT22;90;48.810;9.120;2023-03-29T03:18:00;7.10;76.30
210;DHT22;90;48.810;9.120;2023-03-29T03:20:29;7.10;76.00
210;DHT22;90;48.810;9.120;2023-03-29T03:22:56;7.00;76.00
210;DHT22;90;48.810;9.120;2023-03-29T03:25:23;7.00;75.70
210;DHT22;90;48.810;9.120;2023-03-29T03:27:50;7.10;75.60
210;DHT22;90;48.810;9.120;2023-03-29T03:30:16;7.20;74.70
210;DHT22;90;48.810;9.120;2023-03-29T03:32:43;7.20;74.50
210;DHT22;90;48.810;9.120;2023-03-29T03:35:10;7.30;73.90
210;DHT22;90;48.810;9.120;2023-03-29T03:37:39;7.30;73.50
210;DHT22;90;48.810;9.120;2023-03-29T03:40:07;7.30;74.00
210;DHT22;90;48.810;9.120;2023-03-29T03:42:36;7.40;73.30
210;DHT22;90;48.810;9.120;2023-03-29T03:45:03;7.40;73.10
210;DHT22;90;48.810;9.120;2023-03-29T03:47:30;7.40;72.70
210;DHT22;90;48.810;9.120;2023-03-29T03:49:57;7.50;72.10
210;DHT22;90;48.810;9.120;2023-03-29T03:52:24;7.60;72.10
210;DHT22;90;48.810;9.120;2023-03-29T03:54:52;7.60;71.90
210;DHT22;90;48.810;9.120;2023-03-29T03:57:19;7.70;71.40
210;DHT22;90;48.810;9.120;2023-03-29T03:59:47;7.70;71.10
210;DHT22;90;48.810;9.120;2023-03-29T04:02:14;7.70;70.40
210;DHT22;90;48.810;9.120;2023-03-29T04:04:42;7.80;70.70
210;DHT22;90;48.810;9.120;2023-03-29T04:07:09;7.90;69.30
210;DHT22;90;48.810;9.120;2023-03-29T04:09:37;7.90;68.80
210;DHT22;90;48.810;9.120;2023-03-29T04:12:05;7.90;69.20
210;DHT22;90;48.810;9.120;2023-03-29T04:14:32;7.90;68.50
210;DHT22;90;48.810;9.120;2023-03-29T04:17:00;8.00;68.30
210;DHT22;90;48.810;9.120;2023-03-29T04:19:27;8.00;68.10
210;DHT22;90;48.810;9.120;2023-03-29T04:21:54;8.00;68.60
210;DHT22;90;48.810;9.120;2023-03-29T04:24:22;8.00;68.40
210;DHT22;90;48.810;9.120;2023-03-29T04:26:49;8.00;68.20
210;DHT22;90;48.810;9.120;2023-03-29T04:29:17;8.10;68.20
210;DHT22;90;48.810;9.120;2023-03-29T04:31:43;8.10;68.00
210;DHT22;90;48.810;9.120;2023-03-29T04:34:10;8.10;68.00
210;DHT22;90;48.810;9.120;2023-03-29T04:36:37;8.10;68.20
210;DHT22;90;48.810;9.120;2023-03-29T04:39:04;8.10;68.40
210;DHT22;90;48.810;9.120;2023-03-29T04:41:32;8.10;68.40
210;DHT22;90;48.810;9.120;2023-03-29T04:43:59;8.20;68.20
210;DHT22;90;48.810;9.120;2023-03-29T04:46:28;8.20;68.00
210;DHT22;90;48.810;9.120;2023-03-29T04:48:55;8.20;68.10
210;DHT22;90;48.810;9.120;2023-03-29T04:51:22;8.20;68.20
210;DHT22;90;48.810;9.120;2023-03-29T04:53:49;8.20;68.00
210;DHT22;90;48.810;9.120;2023-03-29T04:56:16;8.20;68.10
210;DHT22;90;48.810;9.120;2023-03-29T04:58:43;8.20;67.80
210;DHT22;90;48.810;9.120;2023-03-29T05:01:10;8.20;67.40
210;DHT22;90;48.810;9.120;2023-03-29T05:03:38;8.20;67.50
210;DHT22;90;48.810;9.120;2023-03-29T05:06:06;8.30;66.90
210;DHT22;90;48.810;9.120;2023-03-29T05:08:33;8.30;66.80
210;DHT22;90;48.810;9.120;2023-03-29T05:11:04;8.40;66.60
210;DHT22;90;48.810;9.120;2023-03-29T05:13:31;8.40;66.90
210;DHT22;90;48.810;9.120;2023-03-29T05:15:57;8.40;66.30
210;DHT22;90;48.810;9.120;2023-03-29T05:18:26;8.80;77.70
210;DHT22;90;48.810;9.120;2023-03-29T05:20:54;9.90;69.80
210;DHT22;90;48.810;9.120;2023-03-29T05:23:21;9.80;64.30
210;DHT22;90;48.810;9.120;2023-03-29T05:25:48;9.60;63.00
210;DHT22;90;48.810;9.120;2023-03-29T05:28:15;9.40;63.60
210;DHT22;90;48.810;9.120;2023-03-29T05:30:42;9.20;63.90
210;DHT22;90;48.810;9.120;2023-03-29T05:33:10;9.10;64.40
210;DHT22;90;48.810;9.120;2023-03-29T05:35:37;9.10;64.20
210;DHT22;90;48.810;9.120;2023-03-29T05:38:05;8.90;64.30
210;DHT22;90;48.810;9.120;2023-03-29T05:40:33;8.80;64.80
210;DHT22;90;48.810;9.120;2023-03-29T05:43:00;8.80;65.10
210;DHT22;90;48.810;9.120;2023-03-29T05:45:27;8.80;65.10
210;DHT22;90;48.810;9.120;2023-03-29T05:47:54;8.70;65.00
210;DHT22;90;48.810;9.120;2023-03-29T05:50:21;9.20;74.40
210;DHT22;90;48.810;9.120;2023-03-29T05:52:47;9.20;64.70
210;DHT22;90;48.810;9.120;2023-03-29T05:55:16;9.10;64.20
210;DHT22;90;48.810;9.120;2023-03-29T05:57:43;9.00;64.10
210;DHT22;90;48.810;9.120;2023-03-29T06:00:11;9.00;64.00
210;DHT22;90;48.810;9.120;2023-03-29T06:02:47;8.90;64.50
210;DHT22;90;48.810;9.120;2023-03-29T06:05:14;8.90;64.30
210;DHT22;90;48.810;9.120;2023-03-29T06:07:41;8.90;64.60
210;DHT22;90;48.810;9.120;2023-03-29T06:10:08;8.90;64.60
210;DHT22;90;48.810;9.120;2023-03-29T06:12:37;8.90;64.50
210;DHT22;90;48.810;9.120;2023-03-29T06:15:05;8.90;64.50
210;DHT22;90;48.810;9.120;2023-03-29T06:17:33;8.90;64.20
210;DHT22;90;48.810;9.120;2023-03-29T06:20:00;8.90;64.50
210;DHT22;90;48.810;9.120;2023-03-29T06:22:29;8.90;64.40
210;DHT22;90;48.810;9.120;2023-03-29T06:24:56;9.00;64.60
210;DHT22;90;48.810;9.120;2023-03-29T06:27:22;9.00;64.50
210;DHT22;90;48.810;9.120;2023-03-29T06:29:50;9.10;64.60
210;DHT22;90;48.810;9.120;2023-03-29T06:32:18;9.20;64.40
210;DHT22;90;48.810;9.120;2023-03-29T06:34:45;9.30;63.60
210;DHT22;90;48.810;9.120;2023-03-29T06:37:12;9.30;64.10
210;DHT22;90;48.810;9.120;2023-03-29T06:39:38;9.40;63.30
210;DHT22;90;48.810;9.120;2023-03-29T06:42:06;9.40;63.40
210;DHT22;90;48.810;9.120;2023-03-29T06:44:32;9.40;63.90
210;DHT22;90;48.810;9.120;2023-03-29T06:47:01;9.40;64.30
210;DHT22;90;48.810;9.120;2023-03-29T06:49:28;9.50;64.20
210;DHT22;90;48.810;9.120;2023-03-29T06:51:55;9.50;64.60
210;DHT22;90;48.810;9.120;2023-03-29T06:54:22;9.50;65.20
210;DHT22;90;48.810;9.120;2023-03-29T06:56:49;10.10;74.40
210;DHT22;90;48.810;9.120;2023-03-29T06:59:15;10.50;66.30
210;DHT22;90;48.810;9.120;2023-03-29T07:01:42;10.50;63.30
210;DHT22;90;48.810;9.120;2023-03-29T07:04:10;10.20;63.70
210;DHT22;90;48.810;9.120;2023-03-29T07:06:38;10.10;64.40
210;DHT22;90;48.810;9.120;2023-03-29T07:09:05;10.20;70.00
210;DHT22;90;48.810;9.120;2023-03-29T07:11:32;10.30;66.10
210;DHT22;90;48.810;9.120;2023-03-29T07:14:00;10.30;64.70
210;DHT22;90;48.810;9.120;2023-03-29T07:16:28;10.20;64.10
210;DHT22;90;48.810;9.120;2023-03-29T07:18:55;10.10;64.70
210;DHT22;90;48.810;9.120;2023-03-29T07:21:23;10.00;65.10
210;DHT22;90;48.810;9.120;2023-03-29T07:23:52;9.90;65.50
210;DHT22;90;48.810;9.120;2023-03-29T07:26:18;9.90;66.00
210;DHT22;90;48.810;9.120;2023-03-29T07:28:46;9.90;66.50
210;DHT22;90;48.810;9.120;2023-03-29T07:31:14;9.80;66.80
210;DHT22;90;48.810;9.120;2023-03-29T07:33:42;9.80;67.00
210;DHT22;90;48.810;9.120;2023-03-29T07:36:09;9.80;67.20
210;DHT22;90;48.810;9.120;2023-03-29T07:38:37;9.80;67.40
210;DHT22;90;48.810;9.120;2023-03-29T07:41:05;9.80;67.30
210;DHT22;90;48.810;9.120;2023-03-29T07:43:32;9.90;67.10
210;DHT22;90;48.810;9.120;2023-03-29T07:46:00;9.90;67.10
210;DHT22;90;48.810;9.120;2023-03-29T07:48:27;9.90;67.20
210;DHT22;90;48.810;9.120;2023-03-29T07:50:54;10.00;69.50
210;DHT22;90;48.810;9.120;2023-03-29T07:53:21;10.50;68.70
210;DHT22;90;48.810;9.120;2023-03-29T07:55:50;10.60;66.30
210;DHT22;90;48.810;9.120;2023-03-29T07:58:19;10.60;66.90
210;DHT22;90;48.810;9.120;2023-03-29T08:00:46;10.60;65.80
210;DHT22;90;48.810;9.120;2023-03-29T08:03:13;10.50;65.90
210;DHT22;90;48.810;9.120;2023-03-29T08:05:40;10.50;66.10
210;DHT22;90;48.810;9.120;2023-03-29T08:08:08;10.50;66.00
210;DHT22;90;48.810;9.120;2023-03-29T08:10:36;10.50;66.00
210;DHT22;90;48.810;9.120;2023-03-29T08:13:06;10.60;65.40
210;DHT22;90;48.810;9.120;2023-03-29T08:15:33;10.60;65.70
210;DHT22;90;48.810;9.120;2023-03-29T08:18:02;10.60;66.40
210;DHT22;90;48.810;9.120;2023-03-29T08:20:29;10.70;65.50
210;DHT22;90;48.810;9.120;2023-03-29T08:22:56;10.70;65.50
210;DHT22;90;48.810;9.120;2023-03-29T08:25:23;10.80;66.00
210;DHT22;90;48.810;9.120;2023-03-29T08:27:50;10.80;67.60
210;DHT22;90;48.810;9.120;2023-03-29T08:30:18;10.80;65.80
210;DHT22;90;48.810;9.120;2023-03-29T08:32:45;10.90;65.30
210;DHT22;90;48.810;9.120;2023-03-29T08:35:12;10.90;66.10
210;DHT22;90;48.810;9.120;2023-03-29T08:37:39;10.90;66.50
210;DHT22;90;48.810;9.120;2023-03-29T08:40:06;11.00;67.00
210;DHT22;90;48.810;9.120;2023-03-29T08:42:44;11.00;66.40
210;DHT22;90;48.810;9.120;2023-03-29T08:45:24;11.30;69.30
210;DHT22;90;48.810;9.120;2023-03-29T08:48:00;12.40;66.40
210;DHT22;90;48.810;9.120;2023-03-29T08:50:34;13.40;62.80
210;DHT22;90;48.810;9.120;2023-03-29T08:53:05;14.00;59.50
210;DHT22;90;48.810;9.120;2023-03-29T08:55:39;13.80;58.50
210;DHT22;90;48.810;9.120;2023-03-29T08:58:10;13.50;58.50
210;DHT22;90;48.810;9.120;2023-03-29T09:00:53;13.20;59.30
210;DHT22;90;48.810;9.120;2023-03-29T09:03:26;12.90;59.70
210;DHT22;90;48.810;9.120;2023-03-29T09:05:58;13.00;62.60
210;DHT22;90;48.810;9.120;2023-03-29T09:08:25;12.90;61.50
210;DHT22;90;48.810;9.120;2023-03-29T09:11:03;12.80;61.00
210;DHT22;90;48.810;9.120;2023-03-29T09:13:37;12.60;62.00
210;DHT22;90;48.810;9.120;2023-03-29T09:16:14;12.50;61.20
210;DHT22;90;48.810;9.120;2023-03-29T09:18:48;12.30;60.10
210;DHT22;90;48.810;9.120;2023-03-29T09:21:21;12.20;59.40
210;DHT22;90;48.810;9.120;2023-03-29T09:26:40;12.20;60.10
210;DHT22;90;48.810;9.120;2023-03-29T09:29:26;12.20;63.10
210;DHT22;90;48.810;9.120;2023-03-29T09:31:57;13.30;63.70
210;DHT22;90;48.810;9.120;2023-03-29T09:34:30;13.90;57.70
210;DHT22;90;48.810;9.120;2023-03-29T09:37:02;13.70;55.80
210;DHT22;90;48.810;9.120;2023-03-29T09:39:30;13.40;54.50
210;DHT22;90;48.810;9.120;2023-03-29T09:41:59;13.20;55.30
210;DHT22;90;48.810;9.120;2023-03-29T09:44:31;13.10;56.50
210;DHT22;90;48.810;9.120;2023-03-29T09:47:02;13.00;56.60
210;DHT22;90;48.810;9.120;2023-03-29T09:49:35;12.90;56.90
210;DHT22;90;48.810;9.120;2023-03-29T09:52:06;12.90;56.30
210;DHT22;90;48.810;9.120;2023-03-29T09:54:35;12.90;56.20
210;DHT22;90;48.810;9.120;2023-03-29T09:57:02;12.90;56.30
210;DHT22;90;48.810;9.120;2023-03-29T09:59:29;12.90;56.70
210;DHT22;90;48.810;9.120;2023-03-29T10:02:06;13.00;55.90
210;DHT22;90;48.810;9.120;2023-03-29T10:04:33;13.20;59.50
210;DHT22;90;48.810;9.120;2023-03-29T10:07:04;13.70;57.80
210;DHT22;90;48.810;9.120;2023-03-29T10:09:32;13.70;54.10
210;DHT22;90;48.810;9.120;2023-03-29T10:12:01;13.50;54.30
210;DHT22;90;48.810;9.120;2023-03-29T10:14:34;13.50;54.90
210;DHT22;90;48.810;9.120;2023-03-29T10:17:15;13.60;54.10
210;DHT22;90;48.810;9.120;2023-03-29T10:19:47;13.50;53.60
210;DHT22;90;48.810;9.120;2023-03-29T10:22:17;13.60;53.40
210;DHT22;90;48.810;9.120;2023-03-29T10:24:52;13.50;53.70
210;DHT22;90;48.810;9.120;2023-03-29T10:27:33;13.50;52.70
210;DHT22;90;48.810;9.120;2023-03-29T10:30:07;13.30;53.70
210;DHT22;90;48.810;9.120;2023-03-29T10:32:38;13.30;53.40
210;DHT22;90;48.810;9.120;2023-03-29T10:35:08;13.20;54.50
210;DHT22;90;48.810;9.120;2023-03-29T10:37:41;13.30;54.70
210;DHT22;90;48.810;9.120;2023-03-29T10:40:18;13.30;54.10
210;DHT22;90;48.810;9.120;2023-03-29T10:42:48;13.40;54.90
210;DHT22;90;48.810;9.120;2023-03-29T10:45:23;13.40;54.90
210;DHT22;90;48.810;9.120;2023-03-29T10:47:53;13.50;54.60
210;DHT22;90;48.810;9.120;2023-03-29T10:50:22;13.60;54.80
210;DHT22;90;48.810;9.120;2023-03-29T10:52:49;13.70;53.90
210;DHT22;90;48.810;9.120;2023-03-29T10:55:16;13.90;53.70
210;DHT22;90;48.810;9.120;2023-03-29T10:57:51;14.00;53.50
210;DHT22;90;48.810;9.120;2023-03-29T11:00:26;14.00;55.00
210;DHT22;90;48.810;9.120;2023-03-29T11:06:09;14.10;54.00
210;DHT22;90;48.810;9.120;2023-03-29T11:08:47;14.10;54.40
210;DHT22;90;48.810;9.120;2023-03-29T11:11:30;14.30;54.10
210;DHT22;90;48.810;9.120;2023-03-29T11:14:10;14.60;53.10
210;DHT22;90;48.810;9.120;2023-03-29T11:16:44;14.70;52.70
210;DHT22;90;48.810;9.120;2023-03-29T11:19:24;14.70;52.70
210;DHT22;90;48.810;9.120;2023-03-29T11:22:01;15.00;57.70
210;DHT22;90;48.810;9.120;2023-03-29T11:27:33;15.30;51.70
210;DHT22;90;48.810;9.120;2023-03-29T11:30:13;15.30;51.50
210;DHT22;90;48.810;9.120;2023-03-29T11:32:52;15.40;52.10
210;DHT22;90;48.810;9.120;2023-03-29T11:35:39;15.50;50.80
210;DHT22;90;48.810;9.120;2023-03-29T11:38:19;15.50;51.40
210;DHT22;90;48.810;9.120;2023-03-29T11:40:58;15.40;52.00
210;DHT22;90;48.810;9.120;2023-03-29T11:43:30;15.20;51.60
210;DHT22;90;48.810;9.120;2023-03-29T11:46:01;15.20;52.40
210;DHT22;90;48.810;9.120;2023-03-29T11:48:33;15.00;53.30
210;DHT22;90;48.810;9.120;2023-03-29T11:51:06;14.90;53.60
210;DHT22;90;48.810;9.120;2023-03-29T11:53:43;14.90;53.40
210;DHT22;90;48.810;9.120;2023-03-29T11:56:14;14.80;53.60
210;DHT22;90;48.810;9.120;2023-03-29T11:58:48;14.80;53.90
210;DHT22;90;48.810;9.120;2023-03-29T12:01:22;14.80;54.40
210;DHT22;90;48.810;9.120;2023-03-29T12:03:54;14.90;54.90
210;DHT22;90;48.810;9.120;2023-03-29T12:06:25;15.10;54.50
210;DHT22;90;48.810;9.120;2023-03-29T12:08:59;15.30;54.30
210;DHT22;90;48.810;9.120;2023-03-29T12:11:32;15.50;54.80
210;DHT22;90;48.810;9.120;2023-03-29T12:14:04;15.60;54.60
210;DHT22;90;48.810;9.120;2023-03-29T12:16:38;15.70;53.80
210;DHT22;90;48.810;9.120;2023-03-29T12:19:13;15.70;51.60
210;DHT22;90;48.810;9.120;2023-03-29T12:21:42;15.70;51.00
210;DHT22;90;48.810;9.120;2023-03-29T12:24:12;15.80;50.70
210;DHT22;90;48.810;9.120;2023-03-29T12:26:59;15.70;49.70
210;DHT22;90;48.810;9.120;2023-03-29T12:29:39;15.70;49.80
210;DHT22;90;48.810;9.120;2023-03-29T12:32:22;15.60;50.10
210;DHT22;90;48.810;9.120;2023-03-29T12:35:04;15.70;49.80
210;DHT22;90;48.810;9.120;2023-03-29T12:37:43;15.60;50.30
210;DHT22;90;48.810;9.120;2023-03-29T12:40:14;15.70;49.90
210;DHT22;90;48.810;9.120;2023-03-29T12:42:46;15.60;50.10
210;DHT22;90;48.810;9.120;2023-03-29T12:45:17;15.50;50.70
210;DHT22;90;48.810;9.120;2023-03-29T12:47:45;15.40;51.60
210;DHT22;90;48.810;9.120;2023-03-29T12:50:32;15.30;52.20
210;DHT22;90;48.810;9.120;2023-03-29T12:53:04;15.30;53.60
210;DHT22;90;48.810;9.120;2023-03-29T12:55:45;15.20;54.30
210;DHT22;90;48.810;9.120;2023-03-29T12:58:24;15.10;53.90
210;DHT22;90;48.810;9.120;2023-03-29T13:01:01;15.00;53.20
210;DHT22;90;48.810;9.120;2023-03-29T13:03:38;15.00;54.50
210;DHT22;90;48.810;9.120;2023-03-29T13:06:08;15.00;54.50
210;DHT22;90;48.810;9.120;2023-03-29T13:08:37;15.10;55.20
210;DHT22;90;48.810;9.120;2023-03-29T13:11:10;15.00;54.90
210;DHT22;90;48.810;9.120;2023-03-29T13:13:39;15.00;54.70
210;DHT22;90;48.810;9.120;2023-03-29T13:16:14;14.90;53.90
210;DHT22;90;48.810;9.120;2023-03-29T13:18:57;14.90;53.40
210;DHT22;90;48.810;9.120;2023-03-29T13:21:34;14.90;54.50
210;DHT22;90;48.810;9.120;2023-03-29T13:24:20;15.00;53.60
210;DHT22;90;48.810;9.120;2023-03-29T13:26:55;15.00;54.40
210;DHT22;90;48.810;9.120;2023-03-29T13:29:51;15.10;53.50
210;DHT22;90;48.810;9.120;2023-03-29T13:32:36;15.10;54.70
210;DHT22;90;48.810;9.120;2023-03-29T13:35:13;15.10;55.80
210;DHT22;90;48.810;9.120;2023-03-29T13:37:48;15.10;56.50
210;DHT22;90;48.810;9.120;2023-03-29T13:40:30;15.00;57.20
210;DHT22;90;48.810;9.120;2023-03-29T13:43:07;14.90;57.90
210;DHT22;90;48.810;9.120;2023-03-29T13:45:35;14.90;57.90
210;DHT22;90;48.810;9.120;2023-03-29T13:48:03;14.90;58.80
210;DHT22;90;48.810;9.120;2023-03-29T13:50:36;14.70;60.00
210;DHT22;90;48.810;9.120;2023-03-29T13:53:09;14.60;60.70
210;DHT22;90;48.810;9.120;2023-03-29T13:55:43;14.50;61.20
210;DHT22;90;48.810;9.120;2023-03-29T13:58:24;14.40;64.40
210;DHT22;90;48.810;9.120;2023-03-29T14:00:54;14.20;67.70
210;DHT22;90;48.810;9.120;2023-03-29T14:03:23;14.00;71.30
210;DHT22;90;48.810;9.120;2023-03-29T14:05:57;13.80;73.00
210;DHT22;90;48.810;9.120;2023-03-29T14:08:27;13.70;74.10
210;DHT22;90;48.810;9.120;2023-03-29T14:10:55;13.60;75.20
210;DHT22;90;48.810;9.120;2023-03-29T14:13:27;13.50;76.50
210;DHT22;90;48.810;9.120;2023-03-29T14:15:57;13.50;77.70
210;DHT22;90;48.810;9.120;2023-03-29T14:18:27;13.50;78.70
210;DHT22;90;48.810;9.120;2023-03-29T14:20:59;13.60;80.10
210;DHT22;90;48.810;9.120;2023-03-29T14:23:28;13.70;79.40
210;DHT22;90;48.810;9.120;2023-03-29T14:26:05;13.60;78.70
210;DHT22;90;48.810;9.120;2023-03-29T14:28:34;13.80;77.70
210;DHT22;90;48.810;9.120;2023-03-29T14:31:01;14.20;75.80
210;DHT22;90;48.810;9.120;2023-03-29T14:33:30;14.30;76.00
210;DHT22;90;48.810;9.120;2023-03-29T14:36:00;14.30;77.60
210;DHT22;90;48.810;9.120;2023-03-29T14:38:28;14.20;78.00
210;DHT22;90;48.810;9.120;2023-03-29T14:40:58;14.20;79.80
210;DHT22;90;48.810;9.120;2023-03-29T14:43:25;14.10;80.20
210;DHT22;90;48.810;9.120;2023-03-29T14:45:57;14.10;79.40
210;DHT22;90;48.810;9.120;2023-03-29T14:48:24;14.00;80.20
210;DHT22;90;48.810;9.120;2023-03-29T14:50:51;14.10;80.60
210;DHT22;90;48.810;9.120;2023-03-29T14:53:21;14.10;80.50
210;DHT22;90;48.810;9.120;2023-03-29T14:55:49;14.10;80.20
210;DHT22;90;48.810;9.120;2023-03-29T14:58:20;14.20;79.70
210;DHT22;90;48.810;9.120;2023-03-29T15:00:49;14.20;79.40
210;DHT22;90;48.810;9.120;2023-03-29T15:03:19;14.10;78.30
210;DHT22;90;48.810;9.120;2023-03-29T15:05:49;14.10;78.00
210;DHT22;90;48.810;9.120;2023-03-29T15:08:18;14.10;78.80
210;DHT22;90;48.810;9.120;2023-03-29T15:10:49;14.00;78.70
210;DHT22;90;48.810;9.120;2023-03-29T15:13:19;14.00;78.50
210;DHT22;90;48.810;9.120;2023-03-29T15:15:50;14.00;78.90
210;DHT22;90;48.810;9.120;2023-03-29T15:18:22;14.10;79.60
210;DHT22;90;48.810;9.120;2023-03-29T15:20:51;14.10;79.30
210;DHT22;90;48.810;9.120;2023-03-29T15:23:21;14.10;77.60
210;DHT22;90;48.810;9.120;2023-03-29T15:25:53;14.10;77.30
210;DHT22;90;48.810;9.120;2023-03-29T15:28:24;14.10;78.20
210;DHT22;90;48.810;9.120;2023-03-29T15:30:57;14.20;77.60
210;DHT22;90;48.810;9.120;2023-03-29T15:33:31;14.50;77.00
210;DHT22;90;48.810;9.120;2023-03-29T15:35:59;14.80;76.30
210;DHT22;90;48.810;9.120;2023-03-29T15:38:27;14.90;75.00
210;DHT22;90;48.810;9.120;2023-03-29T15:40:54;15.30;73.60
210;DHT22;90;48.810;9.120;2023-03-29T15:43:21;15.90;70.80
210;DHT22;90;48.810;9.120;2023-03-29T15:45:48;15.90;69.90
210;DHT22;90;48.810;9.120;2023-03-29T15:48:17;15.80;69.50
210;DHT22;90;48.810;9.120;2023-03-29T15:50:46;15.70;69.80
210;DHT22;90;48.810;9.120;2023-03-29T15:53:14;15.60;70.10
210;DHT22;90;48.810;9.120;2023-03-29T15:55:44;15.60;70.50
210;DHT22;90;48.810;9.120;2023-03-29T15:58:13;15.50;70.40
210;DHT22;90;48.810;9.120;2023-03-29T16:00:42;15.30;71.00
210;DHT22;90;48.810;9.120;2023-03-29T16:03:12;15.20;71.40
210;DHT22;90;48.810;9.120;2023-03-29T16:05:40;15.00;71.20
210;DHT22;90;48.810;9.120;2023-03-29T16:08:09;14.90;71.70
210;DHT22;90;48.810;9.120;2023-03-29T16:10:36;14.70;71.80
210;DHT22;90;48.810;9.120;2023-03-29T16:13:03;14.60;72.20
210;DHT22;90;48.810;9.120;2023-03-29T16:15:31;14.40;72.90
210;DHT22;90;48.810;9.120;2023-03-29T16:18:03;14.40;73.60
210;DHT22;90;48.810;9.120;2023-03-29T16:20:30;14.40;73.90
210;DHT22;90;48.810;9.120;2023-03-29T16:22:57;14.30;74.20
210;DHT22;90;48.810;9.120;2023-03-29T16:25:27;14.30;74.60
210;DHT22;90;48.810;9.120;2023-03-29T16:27:54;14.30;74.40
210;DHT22;90;48.810;9.120;2023-03-29T16:30:20;14.30;74.50
210;DHT22;90;48.810;9.120;2023-03-29T16:32:49;14.30;74.20
210;DHT22;90;48.810;9.120;2023-03-29T16:35:20;14.30;75.00
210;DHT22;90;48.810;9.120;2023-03-29T16:37:50;14.30;74.90
210;DHT22;90;48.810;9.120;2023-03-29T16:40:16;14.30;75.10
210;DHT22;90;48.810;9.120;2023-03-29T16:42:45;14.20;75.10
210;DHT22;90;48.810;9.120;2023-03-29T16:45:12;14.20;75.20
210;DHT22;90;48.810;9.120;2023-03-29T16:47:42;14.20;75.60
210;DHT22;90;48.810;9.120;2023-03-29T16:50:10;14.10;75.60
210;DHT22;90;48.810;9.120;2023-03-29T16:52:37;14.10;75.90
210;DHT22;90;48.810;9.120;2023-03-29T16:55:06;14.00;76.10
210;DHT22;90;48.810;9.120;2023-03-29T16:57:33;14.00;75.80
210;DHT22;90;48.810;9.120;2023-03-29T17:00:04;13.90;76.10
210;DHT22;90;48.810;9.120;2023-03-29T17:02:41;13.90;76.10
210;DHT22;90;48.810;9.120;2023-03-29T17:05:09;13.90;76.20
210;DHT22;90;48.810;9.120;2023-03-29T17:07:36;13.90;76.20
210;DHT22;90;48.810;9.120;2023-03-29T17:10:04;13.80;76.10
210;DHT22;90;48.810;9.120;2023-03-29T17:12:31;13.80;76.30
210;DHT22;90;48.810;9.120;2023-03-29T17:14:58;13.70;76.70
210;DHT22;90;48.810;9.120;2023-03-29T17:17:26;13.70;77.00
210;DHT22;90;48.810;9.120;2023-03-29T17:19:54;13.70;76.50
210;DHT22;90;48.810;9.120;2023-03-29T17:22:38;13.70;76.50
210;DHT22;90;48.810;9.120;2023-03-29T17:25:06;13.70;76.70
210;DHT22;90;48.810;9.120;2023-03-29T17:27:33;13.70;76.90